sensor_id;sensor_type;location;lat;lon;timestamp;temperature;humidity
76040;SHT30;64736;50.462;4.850;2023-12-20T00:01:04;6.79;97.14
76040;SHT30;64736;50.462;4.850;2023-12-20T00:03:30;6.59;96.72
76040;SHT30;64736;50.462;4.850;2023-12-20T00:05:55;6.57;96.87
76040;SHT30;64736;50.462;4.850;2023-12-20T00:08:21;6.44;96.15
76040;SHT30;64736;50.462;4.850;2023-12-20T00:10:47;6.27;95.75
76040;SHT30;64736;50.462;4.850;2023-12-20T00:13:12;6.17;95.28
76040;SHT30;64736;50.462;4.850;2023-12-20T00:15:38;6.27;95.84
76040;SHT30;64736;50.462;4.850;2023-12-20T00:18:04;6.06;96.28
76040;SHT30;64736;50.462;4.850;2023-12-20T00:20:30;6.19;95.06
76040;SHT30;64736;50.462;4.850;2023-12-20T00:22:56;6.16;96.35
76040;SHT30;64736;50.462;4.850;2023-12-20T00:25:26;6.07;96.56
76040;SHT30;64736;50.462;4.850;2023-12-20T00:27:51;6.00;96.59
76040;SHT30;64736;50.462;4.850;2023-12-20T00:30:18;5.98;96.76
76040;SHT30;64736;50.462;4.850;2023-12-20T00:32:43;5.96;96.89
76040;SHT30;64736;50.462;4.850;2023-12-20T00:35:13;5.89;96.87
76040;SHT30;64736;50.462;4.850;2023-12-20T00:37:39;5.85;96.85
76040;SHT30;64736;50.462;4.850;2023-12-20T00:40:05;5.82;96.87
76040;SHT30;64736;50.462;4.850;2023-12-20T00:42:32;5.78;96.94
76040;SHT30;64736;50.462;4.850;2023-12-20T00:44:58;5.68;96.96
76040;SHT30;64736;50.462;4.850;2023-12-20T00:47:24;5.68;96.94
76040;SHT30;64736;50.462;4.850;2023-12-20T00:49:50;5.69;96.95
76040;SHT30;64736;50.462;4.850;2023-12-20T00:52:16;5.76;97.03
76040;SHT30;64736;50.462;4.850;2023-12-20T00:54:43;5.76;96.78
76040;SHT30;64736;50.462;4.850;2023-12-20T00:57:09;5.78;96.93
76040;SHT30;64736;50.462;4.850;2023-12-20T00:59:35;5.79;96.92
76040;SHT30;64736;50.462;4.850;2023-12-20T01:02:01;5.75;96.66
76040;SHT30;64736;50.462;4.850;2023-12-20T01:04:27;5.80;96.82
76040;SHT30;64736;50.462;4.850;2023-12-20T01:06:53;5.82;96.82
76040;SHT30;64736;50.462;4.850;2023-12-20T01:09:19;5.78;96.84
76040;SHT30;64736;50.462;4.850;2023-12-20T01:11:45;5.79;96.73
76040;SHT30;64736;50.462;4.850;2023-12-20T01:14:13;5.82;96.72
76040;SHT30;64736;50.462;4.850;2023-12-20T01:16:39;5.83;96.61
76040;SHT30;64736;50.462;4.850;2023-12-20T01:19:04;5.86;96.65
76040;SHT30;64736;50.462;4.850;2023-12-20T01:21:30;5.82;96.56
76040;SHT30;64736;50.462;4.850;2023-12-20T01:23:56;5.78;96.55
76040;SHT30;64736;50.462;4.850;2023-12-20T01:26:22;5.66;96.60
76040;SHT30;64736;50.462;4.850;2023-12-20T01:28:47;5.55;96.61
76040;SHT30;64736;50.462;4.850;2023-12-20T01:31:13;5.54;96.69
76040;SHT30;64736;50.462;4.850;2023-12-20T01:33:39;5.50;96.68
76040;SHT30;64736;50.462;4.850;2023-12-20T01:36:04;5.48;96.72
76040;SHT30;64736;50.462;4.850;2023-12-20T01:38:30;5.47;96.78
76040;SHT30;64736;50.462;4.850;2023-12-20T01:40:56;5.45;96.76
76040;SHT30;64736;50.462;4.850;2023-12-20T01:43:21;5.42;96.67
76040;SHT30;64736;50.462;4.850;2023-12-20T01:45:47;5.38;96.72
76040;SHT30;64736;50.462;4.850;2023-12-20T01:48:14;5.37;96.78
76040;SHT30;64736;50.462;4.850;2023-12-20T01:50:42;5.37;96.91
76040;SHT30;64736;50.462;4.850;2023-12-20T01:53:10;5.41;96.94
76040;SHT30;64736;50.462;4.850;2023-12-20T01:55:39;5.51;96.94
76040;SHT30;64736;50.462;4.850;2023-12-20T01:58:06;5.51;96.81
76040;SHT30;64736;50.462;4.850;2023-12-20T02:00:33;5.48;96.84
76040;SHT30;64736;50.462;4.850;2023-12-20T02:03:02;5.45;96.78
76040;SHT30;64736;50.462;4.850;2023-12-20T02:05:31;5.42;96.79
76040;SHT30;64736;50.462;4.850;2023-12-20T02:07:57;5.37;96.72
76040;SHT30;64736;50.462;4.850;2023-12-20T02:10:23;5.32;96.84
76040;SHT30;64736;50.462;4.850;2023-12-20T02:12:49;5.30;96.89
76040;SHT30;64736;50.462;4.850;2023-12-20T02:15:15;5.26;96.90
76040;SHT30;64736;50.462;4.850;2023-12-20T02:17:41;5.26;96.91
76040;SHT30;64736;50.462;4.850;2023-12-20T02:20:07;5.24;96.86
76040;SHT30;64736;50.462;4.850;2023-12-20T02:22:33;5.34;96.93
76040;SHT30;64736;50.462;4.850;2023-12-20T02:24:59;5.31;96.79
76040;SHT30;64736;50.462;4.850;2023-12-20T02:27:24;5.30;96.85
76040;SHT30;64736;50.462;4.850;2023-12-20T02:29:50;5.28;96.80
76040;SHT30;64736;50.462;4.850;2023-12-20T02:32:17;5.24;96.84
76040;SHT30;64736;50.462;4.850;2023-12-20T02:34:43;5.21;96.83
76040;SHT30;64736;50.462;4.850;2023-12-20T02:37:09;5.23;96.81
76040;SHT30;64736;50.462;4.850;2023-12-20T02:39:34;5.16;96.82
76040;SHT30;64736;50.462;4.850;2023-12-20T02:42:00;5.21;96.84
76040;SHT30;64736;50.462;4.850;2023-12-20T02:44:26;5.19;96.85
76040;SHT30;64736;50.462;4.850;2023-12-20T02:46:51;5.23;96.85
76040;SHT30;64736;50.462;4.850;2023-12-20T02:49:17;5.24;96.80
76040;SHT30;64736;50.462;4.850;2023-12-20T02:51:43;5.23;96.79
76040;SHT30;64736;50.462;4.850;2023-12-20T02:54:09;5.19;96.74
76040;SHT30;64736;50.462;4.850;2023-12-20T02:56:35;5.16;96.76
76040;SHT30;64736;50.462;4.850;2023-12-20T02:59:01;5.13;96.75
76040;SHT30;64736;50.462;4.850;2023-12-20T03:01:28;5.10;96.75
76040;SHT30;64736;50.462;4.850;2023-12-20T03:03:54;5.10;96.79
76040;SHT30;64736;50.462;4.850;2023-12-20T03:06:20;5.10;96.74
76040;SHT30;64736;50.462;4.850;2023-12-20T03:08:46;5.06;96.76
76040;SHT30;64736;50.462;4.850;2023-12-20T03:11:12;5.03;96.80
76040;SHT30;64736;50.462;4.850;2023-12-20T03:13:37;5.00;96.84
76040;SHT30;64736;50.462;4.850;2023-12-20T03:16:10;5.01;96.78
76040;SHT30;64736;50.462;4.850;2023-12-20T03:18:36;5.00;96.79
76040;SHT30;64736;50.462;4.850;2023-12-20T03:21:02;5.00;96.81
76040;SHT30;64736;50.462;4.850;2023-12-20T03:23:29;5.01;96.77
76040;SHT30;64736;50.462;4.850;2023-12-20T03:25:56;4.99;96.70
76040;SHT30;64736;50.462;4.850;2023-12-20T03:28:22;4.97;96.68
76040;SHT30;64736;50.462;4.850;2023-12-20T03:30:48;4.93;96.62
76040;SHT30;64736;50.462;4.850;2023-12-20T03:33:14;4.99;96.72
76040;SHT30;64736;50.462;4.850;2023-12-20T03:35:40;4.94;96.70
76040;SHT30;64736;50.462;4.850;2023-12-20T03:38:06;4.94;96.59
76040;SHT30;64736;50.462;4.850;2023-12-20T03:40:31;4.94;96.58
76040;SHT30;64736;50.462;4.850;2023-12-20T03:42:57;4.89;96.59
76040;SHT30;64736;50.462;4.850;2023-12-20T03:45:23;4.86;96.56
76040;SHT30;64736;50.462;4.850;2023-12-20T03:47:48;4.87;96.57
76040;SHT30;64736;50.462;4.850;2023-12-20T03:50:15;4.93;96.53
76040;SHT30;64736;50.462;4.850;2023-12-20T03:52:41;4.89;96.53
76040;SHT30;64736;50.462;4.850;2023-12-20T03:55:06;4.94;96.48
76040;SHT30;64736;50.462;4.850;2023-12-20T03:57:32;4.96;96.45
76040;SHT30;64736;50.462;4.850;2023-12-20T03:59:58;4.99;96.41
76040;SHT30;64736;50.462;4.850;2023-12-20T04:02:24;5.00;96.33
76040;SHT30;64736;50.462;4.850;2023-12-20T04:04:49;5.04;96.24
76040;SHT30;64736;50.462;4.850;2023-12-20T04:07:15;5.10;96.14
76040;SHT30;64736;50.462;4.850;2023-12-20T04:09:41;5.13;96.06
76040;SHT30;64736;50.462;4.850;2023-12-20T04:12:07;5.13;95.95
76040;SHT30;64736;50.462;4.850;2023-12-20T04:14:33;5.19;95.86
76040;SHT30;64736;50.462;4.850;2023-12-20T04:16:58;5.21;95.87
76040;SHT30;64736;50.462;4.850;2023-12-20T04:19:24;5.23;95.80
76040;SHT30;64736;50.462;4.850;2023-12-20T04:21:50;5.24;95.66
76040;SHT30;64736;50.462;4.850;2023-12-20T04:24:16;5.24;95.63
76040;SHT30;64736;50.462;4.850;2023-12-20T04:26:41;5.24;95.57
76040;SHT30;64736;50.462;4.850;2023-12-20T04:29:07;5.27;95.45
76040;SHT30;64736;50.462;4.850;2023-12-20T04:31:33;5.28;95.46
76040;SHT30;64736;50.462;4.850;2023-12-20T04:33:59;5.27;95.33
76040;SHT30;64736;50.462;4.850;2023-12-20T04:36:24;5.32;95.29
76040;SHT30;64736;50.462;4.850;2023-12-20T04:38:53;5.35;95.15
76040;SHT30;64736;50.462;4.850;2023-12-20T04:41:18;5.38;95.10
76040;SHT30;64736;50.462;4.850;2023-12-20T04:43:44;5.35;94.91
76040;SHT30;64736;50.462;4.850;2023-12-20T04:46:10;5.38;94.80
76040;SHT30;64736;50.462;4.850;2023-12-20T04:48:36;5.40;94.85
76040;SHT30;64736;50.462;4.850;2023-12-20T04:51:02;5.38;94.82
76040;SHT30;64736;50.462;4.850;2023-12-20T04:53:28;5.42;94.83
76040;SHT30;64736;50.462;4.850;2023-12-20T04:55:53;5.47;94.88
76040;SHT30;64736;50.462;4.850;2023-12-20T04:58:19;5.48;94.70
76040;SHT30;64736;50.462;4.850;2023-12-20T05:00:45;5.51;94.66
76040;SHT30;64736;50.462;4.850;2023-12-20T05:03:10;5.52;94.56
76040;SHT30;64736;50.462;4.850;2023-12-20T05:05:36;5.55;94.47
76040;SHT30;64736;50.462;4.850;2023-12-20T05:08:02;5.56;94.36
76040;SHT30;64736;50.462;4.850;2023-12-20T05:10:27;5.55;94.26
76040;SHT30;64736;50.462;4.850;2023-12-20T05:12:53;5.59;94.46
76040;SHT30;64736;50.462;4.850;2023-12-20T05:15:19;5.61;94.35
76040;SHT30;64736;50.462;4.850;2023-12-20T05:17:45;5.59;94.17
76040;SHT30;64736;50.462;4.850;2023-12-20T05:20:10;5.62;94.11
76040;SHT30;64736;50.462;4.850;2023-12-20T05:22:36;5.61;94.27
76040;SHT30;64736;50.462;4.850;2023-12-20T05:25:02;5.63;94.04
76040;SHT30;64736;50.462;4.850;2023-12-20T05:27:27;5.65;93.97
76040;SHT30;64736;50.462;4.850;2023-12-20T05:29:53;5.65;93.93
76040;SHT30;64736;50.462;4.850;2023-12-20T05:32:23;5.65;94.02
76040;SHT30;64736;50.462;4.850;2023-12-20T05:34:49;5.65;93.90
76040;SHT30;64736;50.462;4.850;2023-12-20T05:37:14;5.66;93.95
76040;SHT30;64736;50.462;4.850;2023-12-20T05:39:40;5.69;93.91
76040;SHT30;64736;50.462;4.850;2023-12-20T05:42:06;5.71;93.77
76040;SHT30;64736;50.462;4.850;2023-12-20T05:44:32;5.68;93.98
76040;SHT30;64736;50.462;4.850;2023-12-20T05:46:57;5.68;93.54
76040;SHT30;64736;50.462;4.850;2023-12-20T05:49:23;5.71;93.64
76040;SHT30;64736;50.462;4.850;2023-12-20T05:51:49;5.69;93.68
76040;SHT30;64736;50.462;4.850;2023-12-20T05:54:16;5.71;93.66
76040;SHT30;64736;50.462;4.850;2023-12-20T05:56:42;5.72;93.64
76040;SHT30;64736;50.462;4.850;2023-12-20T05:59:08;5.69;93.53
76040;SHT30;64736;50.462;4.850;2023-12-20T06:01:33;5.72;93.56
76040;SHT30;64736;50.462;4.850;2023-12-20T06:03:59;5.71;93.60
76040;SHT30;64736;50.462;4.850;2023-12-20T06:06:25;5.73;93.50
76040;SHT30;64736;50.462;4.850;2023-12-20T06:08:50;5.73;93.55
76040;SHT30;64736;50.462;4.850;2023-12-20T06:11:16;5.62;93.49
76040;SHT30;64736;50.462;4.850;2023-12-20T06:13:42;5.68;93.44
76040;SHT30;64736;50.462;4.850;2023-12-20T06:16:08;5.69;93.31
76040;SHT30;64736;50.462;4.850;2023-12-20T06:18:33;5.66;93.18
76040;SHT30;64736;50.462;4.850;2023-12-20T06:20:59;5.78;93.38
76040;SHT30;64736;50.462;4.850;2023-12-20T06:23:25;5.75;93.31
76040;SHT30;64736;50.462;4.850;2023-12-20T06:25:52;5.78;93.27
76040;SHT30;64736;50.462;4.850;2023-12-20T06:28:18;5.78;93.25
76040;SHT30;64736;50.462;4.850;2023-12-20T06:30:44;5.78;92.99
76040;SHT30;64736;50.462;4.850;2023-12-20T06:33:09;5.75;92.96
76040;SHT30;64736;50.462;4.850;2023-12-20T06:35:36;5.78;93.11
76040;SHT30;64736;50.462;4.850;2023-12-20T06:38:03;5.76;93.09
76040;SHT30;64736;50.462;4.850;2023-12-20T06:40:28;5.68;92.81
76040;SHT30;64736;50.462;4.850;2023-12-20T06:42:54;5.72;93.03
76040;SHT30;64736;50.462;4.850;2023-12-20T06:45:20;5.73;93.01
76040;SHT30;64736;50.462;4.850;2023-12-20T06:47:45;5.69;92.80
76040;SHT30;64736;50.462;4.850;2023-12-20T06:50:11;5.68;92.80
76040;SHT30;64736;50.462;4.850;2023-12-20T06:52:37;5.69;93.08
76040;SHT30;64736;50.462;4.850;2023-12-20T06:55:03;5.63;92.97
76040;SHT30;64736;50.462;4.850;2023-12-20T06:57:29;5.66;93.08
76040;SHT30;64736;50.462;4.850;2023-12-20T06:59:55;5.66;92.96
76040;SHT30;64736;50.462;4.850;2023-12-20T07:02:21;5.63;92.96
76040;SHT30;64736;50.462;4.850;2023-12-20T07:04:47;5.61;92.80
76040;SHT30;64736;50.462;4.850;2023-12-20T07:07:13;5.59;92.87
76040;SHT30;64736;50.462;4.850;2023-12-20T07:09:39;5.56;92.77
76040;SHT30;64736;50.462;4.850;2023-12-20T07:12:08;5.51;92.70
76040;SHT30;64736;50.462;4.850;2023-12-20T07:14:34;5.48;92.89
76040;SHT30;64736;50.462;4.850;2023-12-20T07:17:00;5.47;92.91
76040;SHT30;64736;50.462;4.850;2023-12-20T07:19:26;5.41;92.77
76040;SHT30;64736;50.462;4.850;2023-12-20T07:21:52;5.48;93.10
76040;SHT30;64736;50.462;4.850;2023-12-20T07:24:18;5.45;92.86
76040;SHT30;64736;50.462;4.850;2023-12-20T07:26:44;5.44;92.97
76040;SHT30;64736;50.462;4.850;2023-12-20T07:29:09;5.44;92.84
76040;SHT30;64736;50.462;4.850;2023-12-20T07:31:35;5.40;92.79
76040;SHT30;64736;50.462;4.850;2023-12-20T07:34:01;5.31;92.99
76040;SHT30;64736;50.462;4.850;2023-12-20T07:36:27;5.34;93.04
76040;SHT30;64736;50.462;4.850;2023-12-20T07:38:52;5.30;93.03
76040;SHT30;64736;50.462;4.850;2023-12-20T07:41:18;5.23;93.04
76040;SHT30;64736;50.462;4.850;2023-12-20T07:43:47;5.19;93.20
76040;SHT30;64736;50.462;4.850;2023-12-20T07:46:12;5.16;93.37
76040;SHT30;64736;50.462;4.850;2023-12-20T07:48:38;5.14;93.24
76040;SHT30;64736;50.462;4.850;2023-12-20T07:51:04;5.23;93.23
76040;SHT30;64736;50.462;4.850;2023-12-20T07:53:33;5.17;93.20
76040;SHT30;64736;50.462;4.850;2023-12-20T07:55:58;5.11;93.15
76040;SHT30;64736;50.462;4.850;2023-12-20T07:58:24;5.06;93.25
76040;SHT30;64736;50.462;4.850;2023-12-20T08:00:49;5.01;93.39
76040;SHT30;64736;50.462;4.850;2023-12-20T08:03:15;5.03;93.37
76040;SHT30;64736;50.462;4.850;2023-12-20T08:05:41;4.99;93.42
76040;SHT30;64736;50.462;4.850;2023-12-20T08:08:07;4.97;93.46
76040;SHT30;64736;50.462;4.850;2023-12-20T08:10:35;4.97;93.54
76040;SHT30;64736;50.462;4.850;2023-12-20T08:13:00;4.97;93.41
76040;SHT30;64736;50.462;4.850;2023-12-20T08:15:26;4.97;93.50
76040;SHT30;64736;50.462;4.850;2023-12-20T08:17:51;4.94;93.47
76040;SHT30;64736;50.462;4.850;2023-12-20T08:20:17;4.90;93.51
76040;SHT30;64736;50.462;4.850;2023-12-20T08:22:43;4.96;93.56
76040;SHT30;64736;50.462;4.850;2023-12-20T08:25:08;4.92;93.53
76040;SHT30;64736;50.462;4.850;2023-12-20T08:27:39;4.89;93.50
76040;SHT30;64736;50.462;4.850;2023-12-20T08:30:05;4.86;93.53
76040;SHT30;64736;50.462;4.850;2023-12-20T08:32:31;4.87;93.53
76040;SHT30;64736;50.462;4.850;2023-12-20T08:34:57;4.86;93.44
76040;SHT30;64736;50.462;4.850;2023-12-20T08:37:23;4.86;93.60
76040;SHT30;64736;50.462;4.850;2023-12-20T08:39:49;4.83;93.54
76040;SHT30;64736;50.462;4.850;2023-12-20T08:42:14;4.86;93.58
76040;SHT30;64736;50.462;4.850;2023-12-20T08:44:40;4.84;93.54
76040;SHT30;64736;50.462;4.850;2023-12-20T08:47:06;4.84;93.44
76040;SHT30;64736;50.462;4.850;2023-12-20T08:49:31;4.87;93.42
76040;SHT30;64736;50.462;4.850;2023-12-20T08:51:57;4.90;93.42
76040;SHT30;64736;50.462;4.850;2023-12-20T08:54:23;4.90;93.32
76040;SHT30;64736;50.462;4.850;2023-12-20T08:56:49;5.00;93.20
76040;SHT30;64736;50.462;4.850;2023-12-20T08:59:14;5.14;92.87
76040;SHT30;64736;50.462;4.850;2023-12-20T09:01:40;5.31;92.62
76040;SHT30;64736;50.462;4.850;2023-12-20T09:04:06;5.41;92.27
76040;SHT30;64736;50.462;4.850;2023-12-20T09:06:31;5.51;92.20
76040;SHT30;64736;50.462;4.850;2023-12-20T09:08:58;5.54;92.03
76040;SHT30;64736;50.462;4.850;2023-12-20T09:11:24;5.55;92.01
76040;SHT30;64736;50.462;4.850;2023-12-20T09:13:51;5.59;91.90
76040;SHT30;64736;50.462;4.850;2023-12-20T09:16:16;5.61;91.94
76040;SHT30;64736;50.462;4.850;2023-12-20T09:18:43;5.54;92.16
76040;SHT30;64736;50.462;4.850;2023-12-20T09:21:10;5.44;92.37
76040;SHT30;64736;50.462;4.850;2023-12-20T09:23:36;5.48;92.49
76040;SHT30;64736;50.462;4.850;2023-12-20T09:26:02;5.51;92.23
76040;SHT30;64736;50.462;4.850;2023-12-20T09:28:28;5.65;92.02
76040;SHT30;64736;50.462;4.850;2023-12-20T09:30:54;5.62;91.81
76040;SHT30;64736;50.462;4.850;2023-12-20T09:33:19;5.62;91.95
76040;SHT30;64736;50.462;4.850;2023-12-20T09:35:45;5.68;91.85
76040;SHT30;64736;50.462;4.850;2023-12-20T09:38:11;5.79;91.69
76040;SHT30;64736;50.462;4.850;2023-12-20T09:40:41;5.88;91.62
76040;SHT30;64736;50.462;4.850;2023-12-20T09:43:11;5.96;91.37
76040;SHT30;64736;50.462;4.850;2023-12-20T09:45:40;6.06;91.36
76040;SHT30;64736;50.462;4.850;2023-12-20T09:48:07;6.11;91.22
76040;SHT30;64736;50.462;4.850;2023-12-20T09:50:35;6.11;90.76
76040;SHT30;64736;50.462;4.850;2023-12-20T09:53:02;6.17;91.11
76040;SHT30;64736;50.462;4.850;2023-12-20T09:55:30;6.20;90.91
76040;SHT30;64736;50.462;4.850;2023-12-20T09:57:57;6.27;91.03
76040;SHT30;64736;50.462;4.850;2023-12-20T10:00:23;6.30;90.95
76040;SHT30;64736;50.462;4.850;2023-12-20T10:02:59;6.37;90.84
76040;SHT30;64736;50.462;4.850;2023-12-20T10:05:31;6.40;90.65
76040;SHT30;64736;50.462;4.850;2023-12-20T10:07:57;6.44;90.61
76040;SHT30;64736;50.462;4.850;2023-12-20T10:10:24;6.48;90.48
76040;SHT30;64736;50.462;4.850;2023-12-20T10:13:11;6.61;90.30
76040;SHT30;64736;50.462;4.850;2023-12-20T10:15:37;6.65;90.08
76040;SHT30;64736;50.462;4.850;2023-12-20T10:18:04;6.67;89.83
76040;SHT30;64736;50.462;4.850;2023-12-20T10:20:30;6.71;89.81
76040;SHT30;64736;50.462;4.850;2023-12-20T10:22:58;6.75;89.93
76040;SHT30;64736;50.462;4.850;2023-12-20T10:25:24;6.72;89.57
76040;SHT30;64736;50.462;4.850;2023-12-20T10:28:11;6.74;89.66
76040;SHT30;64736;50.462;4.850;2023-12-20T10:30:37;6.67;89.67
76040;SHT30;64736;50.462;4.850;2023-12-20T10:33:03;6.84;89.46
76040;SHT30;64736;50.462;4.850;2023-12-20T10:35:30;6.84;89.37
76040;SHT30;64736;50.462;4.850;2023-12-20T10:37:56;6.91;89.36
76040;SHT30;64736;50.462;4.850;2023-12-20T10:40:23;6.89;89.49
76040;SHT30;64736;50.462;4.850;2023-12-20T10:42:50;6.91;88.86
76040;SHT30;64736;50.462;4.850;2023-12-20T10:45:16;6.92;88.97
76040;SHT30;64736;50.462;4.850;2023-12-20T10:47:46;6.97;89.16
76040;SHT30;64736;50.462;4.850;2023-12-20T10:50:12;7.03;89.30
76040;SHT30;64736;50.462;4.850;2023-12-20T10:52:40;7.07;89.05
76040;SHT30;64736;50.462;4.850;2023-12-20T10:55:07;6.97;88.90
76040;SHT30;64736;50.462;4.850;2023-12-20T10:57:32;7.05;89.07
76040;SHT30;64736;50.462;4.850;2023-12-20T11:00:01;7.09;88.79
76040;SHT30;64736;50.462;4.850;2023-12-20T11:02:39;7.09;89.02
76040;SHT30;64736;50.462;4.850;2023-12-20T11:08:38;7.16;88.84
76040;SHT30;64736;50.462;4.850;2023-12-20T11:11:23;7.28;88.68
76040;SHT30;64736;50.462;4.850;2023-12-20T11:14:02;7.30;88.52
76040;SHT30;64736;50.462;4.850;2023-12-20T11:16:37;7.24;88.52
76040;SHT30;64736;50.462;4.850;2023-12-20T11:19:06;7.33;88.61
76040;SHT30;64736;50.462;4.850;2023-12-20T11:21:32;7.40;88.34
76040;SHT30;64736;50.462;4.850;2023-12-20T11:23:59;7.48;88.42
76040;SHT30;64736;50.462;4.850;2023-12-20T11:26:29;7.53;88.24
76040;SHT30;64736;50.462;4.850;2023-12-20T11:29:34;7.55;88.29
76040;SHT30;64736;50.462;4.850;2023-12-20T11:32:04;7.60;88.34
76040;SHT30;64736;50.462;4.850;2023-12-20T11:34:59;7.57;88.11
76040;SHT30;64736;50.462;4.850;2023-12-20T11:37:35;7.47;88.08
76040;SHT30;64736;50.462;4.850;2023-12-20T11:40:11;7.57;88.36
76040;SHT30;64736;50.462;4.850;2023-12-20T11:42:41;7.60;88.16
76040;SHT30;64736;50.462;4.850;2023-12-20T11:45:11;7.60;88.21
76040;SHT30;64736;50.462;4.850;2023-12-20T11:47:41;7.63;88.33
76040;SHT30;64736;50.462;4.850;2023-12-20T11:50:07;7.61;88.08
76040;SHT30;64736;50.462;4.850;2023-12-20T11:52:33;7.60;88.80
76040;SHT30;64736;50.462;4.850;2023-12-20T11:54:59;7.54;88.43
76040;SHT30;64736;50.462;4.850;2023-12-20T11:57:25;7.60;88.29
76040;SHT30;64736;50.462;4.850;2023-12-20T11:59:50;7.61;88.14
76040;SHT30;64736;50.462;4.850;2023-12-20T12:02:16;7.68;88.41
76040;SHT30;64736;50.462;4.850;2023-12-20T12:04:42;7.70;87.86
76040;SHT30;64736;50.462;4.850;2023-12-20T12:07:07;7.77;88.10
76040;SHT30;64736;50.462;4.850;2023-12-20T12:09:34;7.77;87.78
76040;SHT30;64736;50.462;4.850;2023-12-20T12:12:00;7.78;87.92
76040;SHT30;64736;50.462;4.850;2023-12-20T12:14:26;7.81;88.29
76040;SHT30;64736;50.462;4.850;2023-12-20T12:16:52;7.84;88.45
76040;SHT30;64736;50.462;4.850;2023-12-20T12:19:26;7.78;91.69
76040;SHT30;64736;50.462;4.850;2023-12-20T12:22:12;7.63;92.13
76040;SHT30;64736;50.462;4.850;2023-12-20T12:24:40;7.58;92.85
76040;SHT30;64736;50.462;4.850;2023-12-20T12:27:06;7.61;92.84
76040;SHT30;64736;50.462;4.850;2023-12-20T12:29:33;7.54;92.85
76040;SHT30;64736;50.462;4.850;2023-12-20T12:31:59;7.54;93.04
76040;SHT30;64736;50.462;4.850;2023-12-20T12:34:27;7.53;92.82
76040;SHT30;64736;50.462;4.850;2023-12-20T12:36:53;7.57;92.97
76040;SHT30;64736;50.462;4.850;2023-12-20T12:39:19;7.58;92.52
76040;SHT30;64736;50.462;4.850;2023-12-20T12:41:45;7.63;92.38
76040;SHT30;64736;50.462;4.850;2023-12-20T12:44:11;7.70;92.01
76040;SHT30;64736;50.462;4.850;2023-12-20T12:46:37;7.72;91.90
76040;SHT30;64736;50.462;4.850;2023-12-20T12:49:02;7.75;91.33
76040;SHT30;64736;50.462;4.850;2023-12-20T12:51:29;7.79;91.17
76040;SHT30;64736;50.462;4.850;2023-12-20T12:53:55;7.75;91.09
76040;SHT30;64736;50.462;4.850;2023-12-20T12:56:20;7.75;91.16
76040;SHT30;64736;50.462;4.850;2023-12-20T12:58:47;7.75;90.63
76040;SHT30;64736;50.462;4.850;2023-12-20T13:01:13;7.81;90.52
76040;SHT30;64736;50.462;4.850;2023-12-20T13:03:39;7.82;90.39
76040;SHT30;64736;50.462;4.850;2023-12-20T13:06:05;7.88;91.78
76040;SHT30;64736;50.462;4.850;2023-12-20T13:08:31;7.79;92.65
76040;SHT30;64736;50.462;4.850;2023-12-20T13:10:57;7.65;92.72
76040;SHT30;64736;50.462;4.850;2023-12-20T13:13:26;7.67;93.00
76040;SHT30;64736;50.462;4.850;2023-12-20T13:15:52;7.64;94.34
76040;SHT30;64736;50.462;4.850;2023-12-20T13:18:21;7.54;94.50
76040;SHT30;64736;50.462;4.850;2023-12-20T13:20:47;7.48;94.82
76040;SHT30;64736;50.462;4.850;2023-12-20T13:23:13;7.50;94.90
76040;SHT30;64736;50.462;4.850;2023-12-20T13:25:40;7.48;94.95
76040;SHT30;64736;50.462;4.850;2023-12-20T13:28:06;7.48;94.95
76040;SHT30;64736;50.462;4.850;2023-12-20T13:30:31;7.51;94.88
76040;SHT30;64736;50.462;4.850;2023-12-20T13:32:57;7.55;94.87
76040;SHT30;64736;50.462;4.850;2023-12-20T13:35:23;7.57;94.91
76040;SHT30;64736;50.462;4.850;2023-12-20T13:37:49;7.55;94.60
76040;SHT30;64736;50.462;4.850;2023-12-20T13:40:15;7.57;94.59
76040;SHT30;64736;50.462;4.850;2023-12-20T13:42:40;7.57;94.59
76040;SHT30;64736;50.462;4.850;2023-12-20T13:45:07;7.60;94.35
76040;SHT30;64736;50.462;4.850;2023-12-20T13:47:33;7.61;94.48
76040;SHT30;64736;50.462;4.850;2023-12-20T13:49:59;7.63;94.19
76040;SHT30;64736;50.462;4.850;2023-12-20T13:52:25;7.64;94.07
76040;SHT30;64736;50.462;4.850;2023-12-20T13:54:50;7.72;94.18
76040;SHT30;64736;50.462;4.850;2023-12-20T13:57:16;7.74;93.89
76040;SHT30;64736;50.462;4.850;2023-12-20T13:59:42;7.79;94.09
76040;SHT30;64736;50.462;4.850;2023-12-20T14:02:07;7.78;93.57
76040;SHT30;64736;50.462;4.850;2023-12-20T14:04:33;7.81;93.87
76040;SHT30;64736;50.462;4.850;2023-12-20T14:06:59;7.84;94.03
76040;SHT30;64736;50.462;4.850;2023-12-20T14:09:24;7.74;94.05
76040;SHT30;64736;50.462;4.850;2023-12-20T14:11:50;7.77;93.94
76040;SHT30;64736;50.462;4.850;2023-12-20T14:14:16;7.78;94.55
76040;SHT30;64736;50.462;4.850;2023-12-20T14:16:42;7.81;94.62
76040;SHT30;64736;50.462;4.850;2023-12-20T14:19:11;7.82;94.48
76040;SHT30;64736;50.462;4.850;2023-12-20T14:21:37;7.84;94.57
76040;SHT30;64736;50.462;4.850;2023-12-20T14:24:02;7.82;94.67
76040;SHT30;64736;50.462;4.850;2023-12-20T14:26:30;7.79;94.34
76040;SHT30;64736;50.462;4.850;2023-12-20T14:28:55;7.77;94.44
76040;SHT30;64736;50.462;4.850;2023-12-20T14:31:21;7.82;94.56
76040;SHT30;64736;50.462;4.850;2023-12-20T14:33:49;7.89;94.55
76040;SHT30;64736;50.462;4.850;2023-12-20T14:36:16;7.89;94.48
76040;SHT30;64736;50.462;4.850;2023-12-20T14:38:43;7.93;94.33
76040;SHT30;64736;50.462;4.850;2023-12-20T14:41:09;7.96;94.40
76040;SHT30;64736;50.462;4.850;2023-12-20T14:43:35;7.98;94.19
76040;SHT30;64736;50.462;4.850;2023-12-20T14:46:01;7.98;94.05
76040;SHT30;64736;50.462;4.850;2023-12-20T14:48:26;7.96;94.07
76040;SHT30;64736;50.462;4.850;2023-12-20T14:50:53;7.99;93.54
76040;SHT30;64736;50.462;4.850;2023-12-20T14:53:19;7.99;93.21
76040;SHT30;64736;50.462;4.850;2023-12-20T14:55:45;8.06;93.02
76040;SHT30;64736;50.462;4.850;2023-12-20T14:58:12;8.09;92.76
76040;SHT30;64736;50.462;4.850;2023-12-20T15:00:38;8.10;92.76
76040;SHT30;64736;50.462;4.850;2023-12-20T15:03:04;8.12;92.41
76040;SHT30;64736;50.462;4.850;2023-12-20T15:05:31;8.10;92.31
76040;SHT30;64736;50.462;4.850;2023-12-20T15:07:56;8.09;92.22
76040;SHT30;64736;50.462;4.850;2023-12-20T15:10:22;8.12;92.37
76040;SHT30;64736;50.462;4.850;2023-12-20T15:12:48;8.13;92.34
76040;SHT30;64736;50.462;4.850;2023-12-20T15:15:14;8.12;92.15
76040;SHT30;64736;50.462;4.850;2023-12-20T15:17:40;8.13;92.30
76040;SHT30;64736;50.462;4.850;2023-12-20T15:20:06;8.13;91.90
76040;SHT30;64736;50.462;4.850;2023-12-20T15:22:31;8.16;92.42
76040;SHT30;64736;50.462;4.850;2023-12-20T15:24:59;8.16;92.23
76040;SHT30;64736;50.462;4.850;2023-12-20T15:27:26;8.17;92.59
76040;SHT30;64736;50.462;4.850;2023-12-20T15:29:51;8.16;92.52
76040;SHT30;64736;50.462;4.850;2023-12-20T15:32:17;8.16;92.42
76040;SHT30;64736;50.462;4.850;2023-12-20T15:34:46;8.12;92.42
76040;SHT30;64736;50.462;4.850;2023-12-20T15:37:12;8.13;92.10
76040;SHT30;64736;50.462;4.850;2023-12-20T15:39:37;8.16;92.16
76040;SHT30;64736;50.462;4.850;2023-12-20T15:42:03;8.14;92.08
76040;SHT30;64736;50.462;4.850;2023-12-20T15:44:29;8.14;92.34